Frankfort, MI

4:41 PM EST on December 10, 2019 (GMT -0500)
Frankfort

Weather History for KFKS - October, 2019

Change the Weather History Date:

Tuesday, October 8, 2019

  Actual Average (KMBL) Record (KMBL)
Temperature  
Mean Temperature 55 °F -  
Max Temperature 68 °F 59 °F 84 °F (2007)
Min Temperature 42 °F 45 °F 26 °F (2001)
Degree Days  
Heating Degree Days 10    
Growing Degree Days 5 (Base 50)    
Moisture  
Dew Point 42 °F    
Average Humidity 69    
Maximum Humidity 86    
Minimum Humidity 32    
Precipitation  
Precipitation 0.00 in - - ()
Sea Level Pressure  
Sea Level Pressure 30.21 in    
Wind  
Wind Speed 2 mph (South)    
Max Wind Speed 13 mph    
Max Gust Speed 18 mph    
Visibility 9 miles    
Events      
Averages and records for this station are not official NWS values.
T = Trace of Precipitation, MM = Missing Value Source: NWS Daily Summary

Daily Weather History Graph

Daily Weather History Graph

Search for Another Location

Airport or City:

Astronomy

Oct. 08, 2019 Rise Set
Actual Time 7:51 AM EDT 7:12 PM EDT
Civil Twilight 7:21 AM EDT 7:42 PM EDT
Nautical Twilight 6:48 AM EDT 8:15 PM EDT
Astronomical Twilight 6:14 AM EDT 8:49 PM EDT
Moon 5:26 PM EDT (10/8) 2:23 AM EDT (10/8)
Length of Visible Light 12h 20m
Length of Day
11h 21m
Waxing Gibbous, 77% of the Moon is Illuminated
Oct 8
Waxing Gibbous
Oct 13
Full
Oct 21
Last Quarter
Oct 27
New
Nov 4
First Quarter

Hourly Weather History & Observations

Time (EDT) Temp. Dew Point Humidity Pressure Visibility Wind Dir Wind Speed Gust Speed Precip Events Conditions
12:00 AM 47.3 °F 42.1 °F 82% 30.20 in 10.0 mi Calm Calm - N/A   Clear
12:18 AM 45.7 °F 41.0 °F 84% 30.19 in 10.0 mi Calm Calm - N/A   Clear
12:36 AM 46.2 °F 41.5 °F 84% 30.19 in 10.0 mi Calm Calm - N/A   Clear
12:55 AM 47.3 °F 42.6 °F 84% 30.20 in 10.0 mi Calm Calm - N/A   Clear
1:15 AM 45.5 °F 41.0 °F 84% 30.20 in 10.0 mi Calm Calm - N/A   Clear
1:16 AM 45.5 °F 41.0 °F 84% 30.20 in 10.0 mi Calm Calm - N/A   Clear
1:39 AM 45.1 °F 40.3 °F 83% 30.20 in 10.0 mi Calm Calm - N/A   Clear
1:57 AM 44.8 °F 40.3 °F 84% 30.20 in 10.0 mi Calm Calm - N/A   Clear
2:15 AM 45.0 °F 40.8 °F 85% 30.20 in 10.0 mi Calm Calm - N/A   Clear
2:35 AM 44.4 °F 40.3 °F 85% 30.20 in 10.0 mi Calm Calm - N/A   Clear
2:55 AM 44.8 °F 40.6 °F 85% 30.20 in 10.0 mi Calm Calm - N/A   Clear
2:59 AM 45.7 °F 41.5 °F 85% 30.20 in 10.0 mi Calm Calm - N/A   Clear
3:17 AM 44.8 °F 40.8 °F 86% 30.21 in 10.0 mi Calm Calm - N/A   Clear
3:35 AM 44.4 °F 40.5 °F 86% 30.20 in 10.0 mi Calm Calm - N/A   Clear
3:55 AM 43.9 °F 39.6 °F 85% 30.21 in 7.0 mi Calm Calm - N/A   Clear
4:15 AM 44.6 °F 40.3 °F 85% 30.21 in 10.0 mi Calm Calm - N/A   Clear
4:20 AM 43.9 °F 39.7 °F 85% 30.21 in 7.0 mi Calm Calm - N/A   Clear
4:38 AM 43.9 °F 39.6 °F 85% 30.21 in 10.0 mi Calm Calm - N/A   Clear
4:56 AM 43.9 °F 39.6 °F 85% 30.21 in 10.0 mi Calm Calm - N/A   Clear
5:15 AM 45.1 °F 41.0 °F 85% 30.22 in 7.0 mi Calm Calm - N/A   Clear
5:35 AM 43.5 °F 39.2 °F 85% 30.22 in 10.0 mi Calm Calm - N/A   Clear
5:59 AM 43.0 °F 38.7 °F 85% 30.23 in 4.0 mi Calm Calm - N/A   Clear
6:17 AM 42.8 °F 38.3 °F 84% 30.23 in 10.0 mi Calm Calm - N/A   Clear
6:35 AM 43.7 °F 39.4 °F 85% 30.23 in 2.5 mi Calm Calm - N/A   Haze
6:36 AM 43.7 °F 39.4 °F 85% 30.23 in 3.0 mi Calm Calm - N/A   Haze
6:55 AM 43.3 °F 39.2 °F 85% 30.23 in 1.0 mi Calm Calm - N/A   Mist
7:15 AM 43.2 °F 39.0 °F 85% 30.24 in 1.0 mi Calm Calm - N/A   Mist
7:20 AM 43.3 °F 39.2 °F 85% 30.24 in 2.5 mi Calm Calm - N/A   Clear
7:38 AM 42.4 °F 38.1 °F 85% 30.24 in 7.0 mi Calm Calm - N/A   Clear
7:56 AM 43.3 °F 38.8 °F 84% 30.24 in 2.5 mi Calm Calm - N/A   Clear
8:15 AM 44.6 °F 40.1 °F 84% 30.24 in 10.0 mi Calm Calm - N/A   Clear
8:16 AM 44.4 °F 40.1 °F 85% 30.24 in 10.0 mi Calm Calm - N/A   Clear
8:35 AM 45.5 °F 41.2 °F 85% 30.24 in 10.0 mi Calm Calm - N/A   Clear
8:59 AM 48.9 °F 45.0 °F 86% 30.25 in 10.0 mi Calm Calm - N/A   Clear
9:17 AM 52.3 °F 46.6 °F 81% 30.25 in 10.0 mi Calm Calm - N/A   Clear
9:35 AM 54.0 °F 46.4 °F 76% 30.25 in 10.0 mi SE 3.5 mph - N/A   Clear
9:55 AM 55.9 °F 46.9 °F 72% 30.26 in 10.0 mi ESE 3.5 mph - N/A   Clear
10:15 AM 57.7 °F 47.3 °F 68% 30.26 in 10.0 mi ESE 3.5 mph - N/A   Clear
10:20 AM 58.5 °F 47.3 °F 66% 30.26 in 10.0 mi SSE 5.8 mph - N/A   Clear
10:38 AM 60.3 °F 45.9 °F 59% 30.26 in 10.0 mi SSE 8.1 mph - N/A   Clear
10:56 AM 61.7 °F 43.9 °F 52% 30.26 in 10.0 mi SSE 10.4 mph - N/A   Clear
11:15 AM 63.0 °F 41.2 °F 45% 30.26 in 10.0 mi South 9.2 mph 16.1 mph N/A   Clear
11:35 AM 63.7 °F 41.0 °F 43% 30.26 in 10.0 mi SSE 12.7 mph - N/A   Clear
11:59 AM 64.8 °F 40.1 °F 40% 30.26 in 10.0 mi SSE 12.7 mph 18.4 mph N/A   Clear
12:17 PM 65.5 °F 39.6 °F 39% 30.25 in 10.0 mi SSE 10.4 mph 17.3 mph N/A   Clear
12:35 PM 66.2 °F 39.4 °F 37% 30.25 in 10.0 mi South 9.2 mph - N/A   Clear
12:36 PM 66.2 °F 39.6 °F 38% 30.25 in 10.0 mi South 8.1 mph - N/A   Clear
12:55 PM 66.7 °F 39.0 °F 36% 30.24 in 10.0 mi South 10.4 mph 17.3 mph N/A   Clear
1:15 PM 67.6 °F 39.6 °F 36% 30.23 in 10.0 mi South 9.2 mph 17.3 mph N/A   Clear
1:38 PM 68.2 °F 38.1 °F 33% 30.23 in 10.0 mi South 9.2 mph - N/A   Clear
1:56 PM 68.7 °F 38.8 °F 34% 30.22 in 10.0 mi South 11.5 mph - N/A   Clear
2:15 PM 68.2 °F 39.2 °F 35% 30.22 in 10.0 mi SSE 11.5 mph - N/A   Clear
2:16 PM 68.2 °F 38.8 °F 34% 30.22 in 10.0 mi South 9.2 mph - N/A   Clear
2:35 PM 68.9 °F 39.6 °F 34% 30.22 in 10.0 mi SW 8.1 mph - N/A   Clear
2:59 PM 68.9 °F 38.1 °F 32% 30.21 in 10.0 mi SW 8.1 mph - N/A   Clear
3:17 PM 68.4 °F 39.2 °F 34% 30.21 in 10.0 mi SSW 5.8 mph - N/A   Clear
3:35 PM 68.5 °F 39.7 °F 35% 30.20 in 10.0 mi SW 6.9 mph - N/A   Clear
3:36 PM 68.7 °F 39.7 °F 35% 30.20 in 10.0 mi SW 8.1 mph - N/A   Clear
3:55 PM 68.5 °F 41.7 °F 38% 30.20 in 10.0 mi SSW 9.2 mph - N/A   Clear
4:15 PM 67.6 °F 41.9 °F 39% 30.20 in 10.0 mi SW 8.1 mph - N/A   Clear
4:38 PM 67.1 °F 46.9 °F 48% 30.19 in 10.0 mi WSW 6.9 mph - N/A   Clear
4:56 PM 66.2 °F 46.2 °F 49% 30.19 in 10.0 mi WSW 6.9 mph - N/A   Clear
5:15 PM 66.2 °F 46.0 °F 48% 30.19 in 10.0 mi SW 3.5 mph - N/A   Clear
5:35 PM 65.7 °F 46.0 °F 49% 30.18 in 10.0 mi SW 5.8 mph - N/A   Clear
5:59 PM 65.1 °F 48.0 °F 54% 30.18 in 10.0 mi SSW 3.5 mph - N/A   Clear
6:17 PM 64.8 °F 47.3 °F 53% 30.18 in 10.0 mi Calm Calm - N/A   Clear
6:35 PM 63.3 °F 50.7 °F 63% 30.18 in 10.0 mi Calm Calm - N/A   Clear
6:55 PM 61.5 °F 49.8 °F 65% 30.17 in 10.0 mi Calm Calm - N/A   Clear
7:15 PM 57.6 °F 50.0 °F 76% 30.17 in 10.0 mi Calm Calm - N/A   Clear
7:20 PM 56.8 °F 49.1 °F 75% 30.17 in 10.0 mi Calm Calm - N/A   Clear
7:38 PM 56.3 °F 49.5 °F 78% 30.17 in 10.0 mi Calm Calm - N/A   Clear
7:56 PM 54.0 °F 48.2 °F 81% 30.18 in 10.0 mi Calm Calm - N/A   Clear
8:15 PM 53.8 °F 46.8 °F 77% 30.17 in 10.0 mi Calm Calm - N/A   Clear
8:35 PM 52.5 °F 45.7 °F 78% 30.17 in 10.0 mi Calm Calm - N/A   Clear
8:36 PM 52.5 °F 45.5 °F 77% 30.17 in 10.0 mi Calm Calm - N/A   Clear
8:59 PM 51.8 °F 45.1 °F 78% 30.17 in 10.0 mi Calm Calm - N/A   Clear
9:17 PM 50.0 °F 43.9 °F 79% 30.17 in 10.0 mi Calm Calm - N/A   Clear
9:35 PM 50.2 °F 44.4 °F 81% 30.17 in 10.0 mi Calm Calm - N/A   Clear
9:55 PM 50.0 °F 44.6 °F 82% 30.17 in 10.0 mi Calm Calm - N/A   Clear
10:15 PM 50.7 °F 43.3 °F 76% 30.17 in 10.0 mi Calm Calm - N/A   Clear
10:38 PM 48.4 °F 42.8 °F 81% 30.17 in 10.0 mi Calm Calm - N/A   Clear
10:56 PM 48.2 °F 41.9 °F 79% 30.17 in 10.0 mi Calm Calm - N/A   Clear
11:15 PM 47.3 °F 41.4 °F 80% 30.17 in 10.0 mi Calm Calm - N/A   Clear
11:16 PM 47.3 °F 41.5 °F 80% 30.17 in 10.0 mi Calm Calm - N/A   Clear
11:35 PM 46.9 °F 41.9 °F 83% 30.17 in 10.0 mi Calm Calm - N/A   Clear
11:59 PM 46.0 °F 40.8 °F 82% 30.17 in 10.0 mi Calm Calm - N/A   Clear